sensor_id;sensor_type;location;lat;lon;timestamp;pressure;altitude;pressure_sealevel;temperature;humidity
34454;BME280;60061;52.080;5.312;2022-11-15T00:00:16;100771.0;;;8.24;100.0
34454;BME280;60061;52.080;5.312;2022-11-15T00:03:29;100773.0;;;8.17;100.0
34454;BME280;60061;52.080;5.312;2022-11-15T00:05:06;100775.0;;;8.22;100.0
34454;BME280;60061;52.080;5.312;2022-11-15T00:06:42;100769.0;;;8.23;100.0
34454;BME280;60061;52.080;5.312;2022-11-15T00:09:55;100770.0;;;8.17;100.0
34454;BME280;60061;52.080;5.312;2022-11-15T00:11:32;100763.0;;;8.07;100.0
34454;BME280;60061;52.080;5.312;2022-11-15T00:13:10;100764.0;;;8.14;100.0
34454;BME280;60061;52.080;5.312;2022-11-15T00:14:46;100762.0;;;8.27;100.0
34454;BME280;60061;52.080;5.312;2022-11-15T00:19:35;100756.0;;;8.33;100.0
34454;BME280;60061;52.080;5.312;2022-11-15T00:21:16;100755.0;;;8.16;100.0
34454;BME280;60061;52.080;5.312;2022-11-15T00:24:28;100755.0;;;8.31;100.0
34454;BME280;60061;52.080;5.312;2022-11-15T00:26:04;100757.0;;;8.26;100.0
34454;BME280;60061;52.080;5.312;2022-11-15T00:27:41;100755.0;;;8.32;100.0
34454;BME280;60061;52.080;5.312;2022-11-15T00:30:53;100755.0;;;8.33;100.0
34454;BME280;60061;52.080;5.312;2022-11-15T00:32:35;100756.0;;;8.36;100.0
34454;BME280;60061;52.080;5.312;2022-11-15T00:34:11;100751.0;;;8.35;100.0
34454;BME280;60061;52.080;5.312;2022-11-15T00:35:47;100748.0;;;8.41;100.0
34454;BME280;60061;52.080;5.312;2022-11-15T00:38:59;100749.0;;;8.45;100.0
34454;BME280;60061;52.080;5.312;2022-11-15T00:40:35;100746.0;;;8.43;100.0
34454;BME280;60061;52.080;5.312;2022-11-15T00:42:11;100741.0;;;8.51;100.0
34454;BME280;60061;52.080;5.312;2022-11-15T00:45:24;100746.0;;;8.45;100.0
34454;BME280;60061;52.080;5.312;2022-11-15T00:47:01;100743.0;;;8.43;100.0
34454;BME280;60061;52.080;5.312;2022-11-15T00:48:37;100739.0;;;8.36;100.0
34454;BME280;60061;52.080;5.312;2022-11-15T00:51:51;100741.0;;;8.52;100.0
34454;BME280;60061;52.080;5.312;2022-11-15T00:53:27;100734.0;;;8.57;100.0
34454;BME280;60061;52.080;5.312;2022-11-15T00:55:04;100734.0;;;8.59;100.0
34454;BME280;60061;52.080;5.312;2022-11-15T00:56:40;100734.0;;;8.51;100.0
34454;BME280;60061;52.080;5.312;2022-11-15T00:59:52;100730.0;;;8.47;100.0
34454;BME280;60061;52.080;5.312;2022-11-15T01:01:28;100727.0;;;8.57;100.0
34454;BME280;60061;52.080;5.312;2022-11-15T01:03:05;100728.0;;;8.6;100.0
34454;BME280;60061;52.080;5.312;2022-11-15T01:06:17;100728.0;;;8.6;100.0
34454;BME280;60061;52.080;5.312;2022-11-15T01:07:54;100725.0;;;8.55;100.0
34454;BME280;60061;52.080;5.312;2022-11-15T01:09:31;100717.0;;;8.61;100.0
34454;BME280;60061;52.080;5.312;2022-11-15T01:12:47;100723.0;;;8.64;100.0
34454;BME280;60061;52.080;5.312;2022-11-15T01:14:23;100713.0;;;8.49;100.0
34454;BME280;60061;52.080;5.312;2022-11-15T01:16:04;100715.0;;;8.48;100.0
34454;BME280;60061;52.080;5.312;2022-11-15T01:17:41;100714.0;;;8.64;100.0
34454;BME280;60061;52.080;5.312;2022-11-15T01:20:53;100714.0;;;8.56;100.0
34454;BME280;60061;52.080;5.312;2022-11-15T01:22:30;100712.0;;;8.64;100.0
34454;BME280;60061;52.080;5.312;2022-11-15T01:24:06;100717.0;;;8.6;100.0
34454;BME280;60061;52.080;5.312;2022-11-15T01:27:20;100717.0;;;8.73;100.0
34454;BME280;60061;52.080;5.312;2022-11-15T01:28:56;100712.0;;;8.67;100.0
34454;BME280;60061;52.080;5.312;2022-11-15T01:30:32;100719.0;;;8.72;100.0
34454;BME280;60061;52.080;5.312;2022-11-15T01:33:45;100715.0;;;8.76;100.0
34454;BME280;60061;52.080;5.312;2022-11-15T01:35:23;100703.0;;;8.76;100.0
34454;BME280;60061;52.080;5.312;2022-11-15T01:36:59;100705.0;;;8.69;100.0
34454;BME280;60061;52.080;5.312;2022-11-15T01:38:36;100708.0;;;8.75;100.0
34454;BME280;60061;52.080;5.312;2022-11-15T01:41:50;100705.0;;;8.77;100.0
34454;BME280;60061;52.080;5.312;2022-11-15T01:43:29;100697.0;;;8.8;100.0
34454;BME280;60061;52.080;5.312;2022-11-15T01:46:51;100689.0;;;8.8;100.0
34454;BME280;60061;52.080;5.312;2022-11-15T01:50:10;100693.0;;;8.8;100.0
34454;BME280;60061;52.080;5.312;2022-11-15T01:51:51;100689.0;;;8.82;100.0
34454;BME280;60061;52.080;5.312;2022-11-15T01:53:28;100689.0;;;8.81;100.0
34454;BME280;60061;52.080;5.312;2022-11-15T01:56:50;100691.0;;;8.88;100.0
34454;BME280;60061;52.080;5.312;2022-11-15T01:58:30;100690.0;;;8.89;100.0
34454;BME280;60061;52.080;5.312;2022-11-15T02:00:08;100693.0;;;8.89;100.0
34454;BME280;60061;52.080;5.312;2022-11-15T02:01:46;100696.0;;;8.98;100.0
34454;BME280;60061;52.080;5.312;2022-11-15T02:05:09;100691.0;;;8.91;100.0
34454;BME280;60061;52.080;5.312;2022-11-15T02:06:46;100689.0;;;8.96;100.0
34454;BME280;60061;52.080;5.312;2022-11-15T02:08:24;100693.0;;;8.99;100.0
34454;BME280;60061;52.080;5.312;2022-11-15T02:10:06;100689.0;;;9.05;100.0
34454;BME280;60061;52.080;5.312;2022-11-15T02:13:24;100685.0;;;8.91;100.0
34454;BME280;60061;52.080;5.312;2022-11-15T02:15:02;100677.0;;;9.01;100.0
34454;BME280;60061;52.080;5.312;2022-11-15T02:16:49;100669.0;;;9.06;100.0
34454;BME280;60061;52.080;5.312;2022-11-15T02:18:35;100664.0;;;9.13;100.0
34454;BME280;60061;52.080;5.312;2022-11-15T02:22:37;100662.0;;;9.23;100.0
34454;BME280;60061;52.080;5.312;2022-11-15T02:26:56;100656.0;;;9.14;100.0
34454;BME280;60061;52.080;5.312;2022-11-15T02:28:48;100647.0;;;9.28;100.0
34454;BME280;60061;52.080;5.312;2022-11-15T02:32:20;100644.0;;;9.36;100.0
34454;BME280;60061;52.080;5.312;2022-11-15T02:34:05;100641.0;;;9.4;100.0
34454;BME280;60061;52.080;5.312;2022-11-15T02:35:52;100648.0;;;9.46;100.0
34454;BME280;60061;52.080;5.312;2022-11-15T02:37:42;100641.0;;;9.48;100.0
34454;BME280;60061;52.080;5.312;2022-11-15T02:39:27;100641.0;;;9.57;100.0
34454;BME280;60061;52.080;5.312;2022-11-15T02:44:09;100637.0;;;9.64;100.0
34454;BME280;60061;52.080;5.312;2022-11-15T02:45:51;100622.0;;;9.66;100.0
34454;BME280;60061;52.080;5.312;2022-11-15T02:47:34;100624.0;;;9.66;100.0
34454;BME280;60061;52.080;5.312;2022-11-15T02:50:55;100619.0;;;9.64;100.0
34454;BME280;60061;52.080;5.312;2022-11-15T02:52:32;100616.0;;;9.64;100.0
34454;BME280;60061;52.080;5.312;2022-11-15T02:54:12;100615.0;;;9.51;100.0
34454;BME280;60061;52.080;5.312;2022-11-15T02:57:40;100618.0;;;9.64;100.0
34454;BME280;60061;52.080;5.312;2022-11-15T02:59:34;100616.0;;;9.72;100.0
34454;BME280;60061;52.080;5.312;2022-11-15T03:01:37;100605.0;;;9.57;100.0
34454;BME280;60061;52.080;5.312;2022-11-15T03:03:29;100607.0;;;9.67;100.0
34454;BME280;60061;52.080;5.312;2022-11-15T03:05:21;100605.0;;;9.73;100.0
34454;BME280;60061;52.080;5.312;2022-11-15T03:07:05;100606.0;;;9.71;100.0
34454;BME280;60061;52.080;5.312;2022-11-15T03:08:53;100606.0;;;9.73;100.0
34454;BME280;60061;52.080;5.312;2022-11-15T03:10:42;100609.0;;;9.77;100.0
34454;BME280;60061;52.080;5.312;2022-11-15T03:14:16;100606.0;;;9.78;100.0
34454;BME280;60061;52.080;5.312;2022-11-15T03:16:01;100605.0;;;9.82;100.0
34454;BME280;60061;52.080;5.312;2022-11-15T03:17:46;100607.0;;;9.8;100.0
34454;BME280;60061;52.080;5.312;2022-11-15T03:19:30;100605.0;;;9.9;100.0
34454;BME280;60061;52.080;5.312;2022-11-15T03:21:12;100603.0;;;9.97;100.0
34454;BME280;60061;52.080;5.312;2022-11-15T03:24:33;100610.0;;;10.05;100.0
34454;BME280;60061;52.080;5.312;2022-11-15T03:26:14;100608.0;;;9.99;100.0
34454;BME280;60061;52.080;5.312;2022-11-15T03:27:54;100615.0;;;9.98;100.0
34454;BME280;60061;52.080;5.312;2022-11-15T03:29:35;100614.0;;;10.03;100.0
34454;BME280;60061;52.080;5.312;2022-11-15T03:34:02;100614.0;;;10.05;100.0
34454;BME280;60061;52.080;5.312;2022-11-15T03:35:44;100609.0;;;10.1;100.0
34454;BME280;60061;52.080;5.312;2022-11-15T03:39:06;100617.0;;;10.19;100.0
34454;BME280;60061;52.080;5.312;2022-11-15T03:40:49;100614.0;;;10.23;100.0
34454;BME280;60061;52.080;5.312;2022-11-15T03:42:32;100612.0;;;10.15;100.0
34454;BME280;60061;52.080;5.312;2022-11-15T03:44:17;100612.0;;;10.25;100.0
34454;BME280;60061;52.080;5.312;2022-11-15T03:47:40;100617.0;;;10.32;100.0
34454;BME280;60061;52.080;5.312;2022-11-15T03:49:23;100619.0;;;10.38;100.0
34454;BME280;60061;52.080;5.312;2022-11-15T03:51:03;100620.0;;;10.36;100.0
34454;BME280;60061;52.080;5.312;2022-11-15T03:52:41;100615.0;;;10.41;100.0
34454;BME280;60061;52.080;5.312;2022-11-15T03:55:54;100616.0;;;10.39;100.0
34454;BME280;60061;52.080;5.312;2022-11-15T03:57:31;100616.0;;;10.42;100.0
34454;BME280;60061;52.080;5.312;2022-11-15T03:59:07;100610.0;;;10.4;100.0
34454;BME280;60061;52.080;5.312;2022-11-15T04:00:43;100605.0;;;10.36;100.0
34454;BME280;60061;52.080;5.312;2022-11-15T04:03:55;100610.0;;;10.42;100.0
34454;BME280;60061;52.080;5.312;2022-11-15T04:05:31;100608.0;;;10.42;100.0
34454;BME280;60061;52.080;5.312;2022-11-15T04:07:07;100610.0;;;10.45;100.0
34454;BME280;60061;52.080;5.312;2022-11-15T04:10:20;100615.0;;;10.5;100.0
34454;BME280;60061;52.080;5.312;2022-11-15T04:11:56;100612.0;;;10.56;100.0
34454;BME280;60061;52.080;5.312;2022-11-15T04:13:32;100608.0;;;10.48;100.0
34454;BME280;60061;52.080;5.312;2022-11-15T04:16:47;100609.0;;;10.46;100.0
34454;BME280;60061;52.080;5.312;2022-11-15T04:18:24;100607.0;;;10.5;100.0
34454;BME280;60061;52.080;5.312;2022-11-15T04:24:14;100591.0;;;10.52;100.0
34454;BME280;60061;52.080;5.312;2022-11-15T04:25:52;100593.0;;;10.58;100.0
34454;BME280;60061;52.080;5.312;2022-11-15T04:29:38;100593.0;;;10.64;100.0
34454;BME280;60061;52.080;5.312;2022-11-15T04:31:14;100595.0;;;10.65;100.0
34454;BME280;60061;52.080;5.312;2022-11-15T04:34:27;100596.0;;;10.7;100.0
34454;BME280;60061;52.080;5.312;2022-11-15T04:38:58;100595.0;;;10.81;100.0
34454;BME280;60061;52.080;5.312;2022-11-15T04:40:35;100595.0;;;10.8;100.0
34454;BME280;60061;52.080;5.312;2022-11-15T04:43:48;100592.0;;;10.82;100.0
34454;BME280;60061;52.080;5.312;2022-11-15T04:45:25;100591.0;;;10.87;100.0
34454;BME280;60061;52.080;5.312;2022-11-15T04:47:01;100583.0;;;10.92;100.0
34454;BME280;60061;52.080;5.312;2022-11-15T04:50:15;100585.0;;;10.79;100.0
34454;BME280;60061;52.080;5.312;2022-11-15T04:51:53;100584.0;;;10.78;100.0
34454;BME280;60061;52.080;5.312;2022-11-15T04:53:28;100591.0;;;10.91;100.0
34454;BME280;60061;52.080;5.312;2022-11-15T04:56:42;100595.0;;;10.8;100.0
34454;BME280;60061;52.080;5.312;2022-11-15T04:58:18;100591.0;;;10.93;100.0
34454;BME280;60061;52.080;5.312;2022-11-15T04:59:54;100595.0;;;10.88;100.0
34454;BME280;60061;52.080;5.312;2022-11-15T05:01:30;100587.0;;;10.94;100.0
34454;BME280;60061;52.080;5.312;2022-11-15T05:06:00;100596.0;;;11.0;100.0
34454;BME280;60061;52.080;5.312;2022-11-15T05:09:13;100596.0;;;10.9;100.0
34454;BME280;60061;52.080;5.312;2022-11-15T05:10:49;100594.0;;;10.94;100.0
34454;BME280;60061;52.080;5.312;2022-11-15T05:12:25;100601.0;;;10.91;100.0
34454;BME280;60061;52.080;5.312;2022-11-15T05:14:02;100602.0;;;10.95;100.0
34454;BME280;60061;52.080;5.312;2022-11-15T05:17:14;100606.0;;;11.04;100.0
34454;BME280;60061;52.080;5.312;2022-11-15T05:18:50;100612.0;;;10.99;100.0
34454;BME280;60061;52.080;5.312;2022-11-15T05:20:27;100602.0;;;11.0;100.0
34454;BME280;60061;52.080;5.312;2022-11-15T05:23:40;100601.0;;;10.92;100.0
34454;BME280;60061;52.080;5.312;2022-11-15T05:25:17;100606.0;;;11.01;100.0
34454;BME280;60061;52.080;5.312;2022-11-15T05:26:53;100601.0;;;10.92;100.0
34454;BME280;60061;52.080;5.312;2022-11-15T05:30:07;100605.0;;;10.94;100.0
34454;BME280;60061;52.080;5.312;2022-11-15T05:31:43;100607.0;;;11.01;100.0
34454;BME280;60061;52.080;5.312;2022-11-15T05:33:19;100600.0;;;11.05;100.0
34454;BME280;60061;52.080;5.312;2022-11-15T05:34:56;100602.0;;;11.05;100.0
34454;BME280;60061;52.080;5.312;2022-11-15T05:38:13;100606.0;;;11.05;100.0
34454;BME280;60061;52.080;5.312;2022-11-15T05:39:49;100599.0;;;11.11;100.0
34454;BME280;60061;52.080;5.312;2022-11-15T05:41:30;100603.0;;;11.15;100.0
34454;BME280;60061;52.080;5.312;2022-11-15T05:44:48;100600.0;;;11.14;100.0
34454;BME280;60061;52.080;5.312;2022-11-15T05:46:27;100603.0;;;11.17;100.0
34454;BME280;60061;52.080;5.312;2022-11-15T05:48:06;100610.0;;;11.21;100.0
34454;BME280;60061;52.080;5.312;2022-11-15T05:49:46;100613.0;;;11.2;100.0
34454;BME280;60061;52.080;5.312;2022-11-15T05:53:01;100610.0;;;11.21;100.0
34454;BME280;60061;52.080;5.312;2022-11-15T05:54:38;100610.0;;;11.21;100.0
34454;BME280;60061;52.080;5.312;2022-11-15T05:56:15;100613.0;;;11.29;100.0
34454;BME280;60061;52.080;5.312;2022-11-15T05:57:52;100618.0;;;11.34;100.0
34454;BME280;60061;52.080;5.312;2022-11-15T06:01:06;100614.0;;;11.38;100.0
34454;BME280;60061;52.080;5.312;2022-11-15T06:02:42;100613.0;;;11.35;100.0
34454;BME280;60061;52.080;5.312;2022-11-15T06:04:18;100616.0;;;11.36;100.0
34454;BME280;60061;52.080;5.312;2022-11-15T06:07:32;100617.0;;;11.48;100.0
34454;BME280;60061;52.080;5.312;2022-11-15T06:09:09;100618.0;;;11.35;100.0
34454;BME280;60061;52.080;5.312;2022-11-15T06:10:45;100617.0;;;11.4;100.0
34454;BME280;60061;52.080;5.312;2022-11-15T06:13:57;100614.0;;;11.42;100.0
34454;BME280;60061;52.080;5.312;2022-11-15T06:15:34;100619.0;;;11.4;100.0
34454;BME280;60061;52.080;5.312;2022-11-15T06:17:10;100622.0;;;11.49;100.0
34454;BME280;60061;52.080;5.312;2022-11-15T06:18:47;100625.0;;;11.5;100.0
34454;BME280;60061;52.080;5.312;2022-11-15T06:21:59;100622.0;;;11.45;100.0
34454;BME280;60061;52.080;5.312;2022-11-15T06:23:35;100625.0;;;11.54;100.0
34454;BME280;60061;52.080;5.312;2022-11-15T06:25:12;100626.0;;;11.55;100.0
34454;BME280;60061;52.080;5.312;2022-11-15T06:28:24;100627.0;;;11.6;100.0
34454;BME280;60061;52.080;5.312;2022-11-15T06:30:00;100632.0;;;11.63;100.0
34454;BME280;60061;52.080;5.312;2022-11-15T06:31:36;100630.0;;;11.63;100.0
34454;BME280;60061;52.080;5.312;2022-11-15T06:34:48;100627.0;;;11.65;100.0
34454;BME280;60061;52.080;5.312;2022-11-15T06:36:24;100630.0;;;11.64;100.0
34454;BME280;60061;52.080;5.312;2022-11-15T06:38:03;100632.0;;;11.61;100.0
34454;BME280;60061;52.080;5.312;2022-11-15T06:41:17;100632.0;;;11.69;100.0
34454;BME280;60061;52.080;5.312;2022-11-15T06:42:57;100630.0;;;11.7;100.0
34454;BME280;60061;52.080;5.312;2022-11-15T06:44:34;100630.0;;;11.6;100.0
34454;BME280;60061;52.080;5.312;2022-11-15T06:46:10;100631.0;;;11.68;100.0
34454;BME280;60061;52.080;5.312;2022-11-15T06:49:23;100631.0;;;11.66;100.0
34454;BME280;60061;52.080;5.312;2022-11-15T06:51:01;100634.0;;;11.68;100.0
34454;BME280;60061;52.080;5.312;2022-11-15T06:52:39;100646.0;;;11.65;100.0
34454;BME280;60061;52.080;5.312;2022-11-15T06:55:51;100642.0;;;11.67;100.0
34454;BME280;60061;52.080;5.312;2022-11-15T06:57:28;100647.0;;;11.68;100.0
34454;BME280;60061;52.080;5.312;2022-11-15T06:59:04;100649.0;;;11.67;100.0
34454;BME280;60061;52.080;5.312;2022-11-15T07:00:40;100657.0;;;11.66;100.0
34454;BME280;60061;52.080;5.312;2022-11-15T07:03:54;100656.0;;;11.72;100.0
34454;BME280;60061;52.080;5.312;2022-11-15T07:05:30;100662.0;;;11.69;100.0
34454;BME280;60061;52.080;5.312;2022-11-15T07:07:07;100662.0;;;11.72;100.0
34454;BME280;60061;52.080;5.312;2022-11-15T07:10:20;100662.0;;;11.84;100.0
34454;BME280;60061;52.080;5.312;2022-11-15T07:11:57;100656.0;;;11.75;100.0
34454;BME280;60061;52.080;5.312;2022-11-15T07:13:34;100655.0;;;11.81;100.0
34454;BME280;60061;52.080;5.312;2022-11-15T07:16:47;100656.0;;;11.81;100.0
34454;BME280;60061;52.080;5.312;2022-11-15T07:18:23;100664.0;;;11.87;100.0
34454;BME280;60061;52.080;5.312;2022-11-15T07:19:59;100665.0;;;11.92;100.0
34454;BME280;60061;52.080;5.312;2022-11-15T07:21:36;100660.0;;;11.95;100.0
34454;BME280;60061;52.080;5.312;2022-11-15T07:24:49;100662.0;;;11.96;100.0
34454;BME280;60061;52.080;5.312;2022-11-15T07:26:25;100660.0;;;11.95;100.0
34454;BME280;60061;52.080;5.312;2022-11-15T07:28:02;100661.0;;;11.88;100.0
34454;BME280;60061;52.080;5.312;2022-11-15T07:31:14;100661.0;;;11.93;100.0
34454;BME280;60061;52.080;5.312;2022-11-15T07:32:52;100664.0;;;11.9;100.0
34454;BME280;60061;52.080;5.312;2022-11-15T07:34:30;100665.0;;;12.03;100.0
34454;BME280;60061;52.080;5.312;2022-11-15T07:37:53;100668.0;;;12.06;100.0
34454;BME280;60061;52.080;5.312;2022-11-15T07:39:29;100664.0;;;11.99;100.0
34454;BME280;60061;52.080;5.312;2022-11-15T07:41:06;100664.0;;;12.0;100.0
34454;BME280;60061;52.080;5.312;2022-11-15T07:42:59;100666.0;;;11.97;100.0
34454;BME280;60061;52.080;5.312;2022-11-15T07:44:35;100656.0;;;12.12;100.0
34454;BME280;60061;52.080;5.312;2022-11-15T07:47:48;100650.0;;;12.1;100.0
34454;BME280;60061;52.080;5.312;2022-11-15T07:49:25;100652.0;;;12.1;100.0
34454;BME280;60061;52.080;5.312;2022-11-15T07:51:01;100649.0;;;12.06;100.0
34454;BME280;60061;52.080;5.312;2022-11-15T07:54:14;100643.0;;;12.02;100.0
34454;BME280;60061;52.080;5.312;2022-11-15T07:55:50;100642.0;;;12.11;100.0
34454;BME280;60061;52.080;5.312;2022-11-15T07:57:27;100653.0;;;12.02;100.0
34454;BME280;60061;52.080;5.312;2022-11-15T08:00:39;100652.0;;;12.08;100.0
34454;BME280;60061;52.080;5.312;2022-11-15T08:02:17;100655.0;;;12.06;100.0
34454;BME280;60061;52.080;5.312;2022-11-15T08:03:54;100653.0;;;12.12;100.0
34454;BME280;60061;52.080;5.312;2022-11-15T08:05:30;100652.0;;;12.01;100.0
34454;BME280;60061;52.080;5.312;2022-11-15T08:08:43;100653.0;;;12.07;100.0
34454;BME280;60061;52.080;5.312;2022-11-15T08:10:20;100646.0;;;12.16;100.0
34454;BME280;60061;52.080;5.312;2022-11-15T08:11:56;100642.0;;;12.2;100.0
34454;BME280;60061;52.080;5.312;2022-11-15T08:15:09;100638.0;;;12.18;100.0
34454;BME280;60061;52.080;5.312;2022-11-15T08:16:45;100639.0;;;12.16;100.0
34454;BME280;60061;52.080;5.312;2022-11-15T08:18:22;100638.0;;;12.13;100.0
34454;BME280;60061;52.080;5.312;2022-11-15T08:21:35;100639.0;;;12.08;100.0
34454;BME280;60061;52.080;5.312;2022-11-15T08:23:11;100641.0;;;11.97;100.0
34454;BME280;60061;52.080;5.312;2022-11-15T08:24:48;100645.0;;;12.17;100.0
34454;BME280;60061;52.080;5.312;2022-11-15T08:26:26;100642.0;;;12.19;100.0
34454;BME280;60061;52.080;5.312;2022-11-15T08:29:44;100644.0;;;12.21;100.0
34454;BME280;60061;52.080;5.312;2022-11-15T08:31:20;100640.0;;;12.26;100.0
34454;BME280;60061;52.080;5.312;2022-11-15T08:32:57;100642.0;;;12.2;100.0
34454;BME280;60061;52.080;5.312;2022-11-15T08:36:12;100637.0;;;12.28;100.0
34454;BME280;60061;52.080;5.312;2022-11-15T08:37:52;100632.0;;;12.24;100.0
34454;BME280;60061;52.080;5.312;2022-11-15T08:39:29;100632.0;;;12.21;100.0
34454;BME280;60061;52.080;5.312;2022-11-15T08:41:06;100626.0;;;12.22;100.0
34454;BME280;60061;52.080;5.312;2022-11-15T08:44:21;100621.0;;;12.3;100.0
34454;BME280;60061;52.080;5.312;2022-11-15T08:45:57;100616.0;;;12.22;100.0
34454;BME280;60061;52.080;5.312;2022-11-15T08:47:35;100614.0;;;12.35;100.0
34454;BME280;60061;52.080;5.312;2022-11-15T08:50:47;100618.0;;;12.27;100.0
34454;BME280;60061;52.080;5.312;2022-11-15T08:52:23;100617.0;;;12.37;100.0
34454;BME280;60061;52.080;5.312;2022-11-15T08:53:59;100618.0;;;12.3;100.0
34454;BME280;60061;52.080;5.312;2022-11-15T08:57:14;100620.0;;;12.2;100.0
34454;BME280;60061;52.080;5.312;2022-11-15T08:58:51;100616.0;;;12.24;100.0
34454;BME280;60061;52.080;5.312;2022-11-15T09:00:27;100613.0;;;12.32;100.0
34454;BME280;60061;52.080;5.312;2022-11-15T09:02:04;100613.0;;;12.31;100.0
34454;BME280;60061;52.080;5.312;2022-11-15T09:05:18;100612.0;;;12.28;100.0
34454;BME280;60061;52.080;5.312;2022-11-15T09:06:55;100617.0;;;12.45;100.0
34454;BME280;60061;52.080;5.312;2022-11-15T09:08:31;100618.0;;;12.48;100.0
34454;BME280;60061;52.080;5.312;2022-11-15T09:11:44;100621.0;;;12.5;100.0
34454;BME280;60061;52.080;5.312;2022-11-15T09:13:20;100611.0;;;12.54;100.0
34454;BME280;60061;52.080;5.312;2022-11-15T09:14:58;100612.0;;;12.57;100.0
34454;BME280;60061;52.080;5.312;2022-11-15T09:18:10;100613.0;;;12.68;100.0
34454;BME280;60061;52.080;5.312;2022-11-15T09:19:46;100609.0;;;12.57;100.0
34454;BME280;60061;52.080;5.312;2022-11-15T09:21:22;100607.0;;;12.6;100.0
34454;BME280;60061;52.080;5.312;2022-11-15T09:22:59;100609.0;;;12.65;100.0
34454;BME280;60061;52.080;5.312;2022-11-15T09:26:12;100611.0;;;12.67;100.0
34454;BME280;60061;52.080;5.312;2022-11-15T09:27:49;100606.0;;;12.55;100.0
34454;BME280;60061;52.080;5.312;2022-11-15T09:29:25;100594.0;;;12.54;100.0
34454;BME280;60061;52.080;5.312;2022-11-15T09:32:41;100596.0;;;12.55;100.0
34454;BME280;60061;52.080;5.312;2022-11-15T09:34:18;100594.0;;;12.51;100.0
34454;BME280;60061;52.080;5.312;2022-11-15T09:35:57;100598.0;;;12.66;100.0
34454;BME280;60061;52.080;5.312;2022-11-15T09:37:35;100598.0;;;12.45;100.0
34454;BME280;60061;52.080;5.312;2022-11-15T09:40:53;100597.0;;;12.48;100.0
34454;BME280;60061;52.080;5.312;2022-11-15T09:42:53;100592.0;;;12.51;100.0
34454;BME280;60061;52.080;5.312;2022-11-15T09:44:44;100591.0;;;12.42;100.0
34454;BME280;60061;52.080;5.312;2022-11-15T09:46:30;100585.0;;;12.57;100.0
34454;BME280;60061;52.080;5.312;2022-11-15T09:48:33;100594.0;;;12.49;100.0
34454;BME280;60061;52.080;5.312;2022-11-15T09:50:31;100590.0;;;12.41;100.0
34454;BME280;60061;52.080;5.312;2022-11-15T09:52:11;100588.0;;;12.46;100.0
34454;BME280;60061;52.080;5.312;2022-11-15T09:55:51;100591.0;;;12.48;100.0
34454;BME280;60061;52.080;5.312;2022-11-15T09:57:38;100591.0;;;12.58;100.0
34454;BME280;60061;52.080;5.312;2022-11-15T09:59:25;100597.0;;;12.6;100.0
34454;BME280;60061;52.080;5.312;2022-11-15T10:03:28;100591.0;;;12.67;100.0
34454;BME280;60061;52.080;5.312;2022-11-15T10:05:12;100584.0;;;12.72;100.0
34454;BME280;60061;52.080;5.312;2022-11-15T10:06:58;100592.0;;;12.64;100.0
34454;BME280;60061;52.080;5.312;2022-11-15T10:10:36;100590.0;;;12.75;100.0
34454;BME280;60061;52.080;5.312;2022-11-15T10:12:15;100582.0;;;12.71;100.0
34454;BME280;60061;52.080;5.312;2022-11-15T10:13:55;100584.0;;;12.67;100.0
34454;BME280;60061;52.080;5.312;2022-11-15T10:15:35;100583.0;;;12.66;100.0
34454;BME280;60061;52.080;5.312;2022-11-15T10:20:13;100577.0;;;12.51;100.0
34454;BME280;60061;52.080;5.312;2022-11-15T10:22:03;100569.0;;;12.51;100.0
34454;BME280;60061;52.080;5.312;2022-11-15T10:23:44;100565.0;;;12.56;100.0
34454;BME280;60061;52.080;5.312;2022-11-15T10:27:00;100563.0;;;12.59;100.0
34454;BME280;60061;52.080;5.312;2022-11-15T10:28:37;100566.0;;;12.64;100.0
34454;BME280;60061;52.080;5.312;2022-11-15T10:30:15;100563.0;;;12.57;100.0
34454;BME280;60061;52.080;5.312;2022-11-15T10:33:31;100558.0;;;12.52;100.0
34454;BME280;60061;52.080;5.312;2022-11-15T10:35:26;100553.0;;;12.64;100.0
34454;BME280;60061;52.080;5.312;2022-11-15T10:37:03;100545.0;;;12.62;100.0
34454;BME280;60061;52.080;5.312;2022-11-15T10:38:52;100550.0;;;12.56;100.0
34454;BME280;60061;52.080;5.312;2022-11-15T10:40:29;100552.0;;;12.63;100.0
34454;BME280;60061;52.080;5.312;2022-11-15T10:44:19;100545.0;;;12.75;100.0
34454;BME280;60061;52.080;5.312;2022-11-15T10:46:19;100536.0;;;12.76;100.0
34454;BME280;60061;52.080;5.312;2022-11-15T10:48:21;100539.0;;;12.88;100.0
34454;BME280;60061;52.080;5.312;2022-11-15T10:50:03;100528.0;;;12.74;100.0
34454;BME280;60061;52.080;5.312;2022-11-15T10:51:45;100530.0;;;12.83;100.0
34454;BME280;60061;52.080;5.312;2022-11-15T10:53:27;100521.0;;;12.72;100.0
34454;BME280;60061;52.080;5.312;2022-11-15T10:55:22;100526.0;;;12.95;100.0
34454;BME280;60061;52.080;5.312;2022-11-15T10:58:50;100516.0;;;12.85;100.0
34454;BME280;60061;52.080;5.312;2022-11-15T11:00:30;100514.0;;;12.9;100.0
34454;BME280;60061;52.080;5.312;2022-11-15T11:02:27;100514.0;;;12.89;100.0
34454;BME280;60061;52.080;5.312;2022-11-15T11:04:11;100514.0;;;12.95;100.0
34454;BME280;60061;52.080;5.312;2022-11-15T11:05:47;100511.0;;;12.91;100.0
34454;BME280;60061;52.080;5.312;2022-11-15T11:09:04;100509.0;;;12.93;100.0
34454;BME280;60061;52.080;5.312;2022-11-15T11:10:52;100508.0;;;12.87;100.0
34454;BME280;60061;52.080;5.312;2022-11-15T11:12:32;100503.0;;;12.91;100.0
34454;BME280;60061;52.080;5.312;2022-11-15T11:14:12;100503.0;;;12.95;100.0
34454;BME280;60061;52.080;5.312;2022-11-15T11:17:57;100508.0;;;12.93;100.0
34454;BME280;60061;52.080;5.312;2022-11-15T11:19:48;100502.0;;;12.99;100.0
34454;BME280;60061;52.080;5.312;2022-11-15T11:21:41;100498.0;;;12.92;100.0
34454;BME280;60061;52.080;5.312;2022-11-15T11:23:36;100491.0;;;13.01;100.0
34454;BME280;60061;52.080;5.312;2022-11-15T11:25:24;100493.0;;;13.02;100.0
34454;BME280;60061;52.080;5.312;2022-11-15T11:27:18;100488.0;;;12.87;100.0
34454;BME280;60061;52.080;5.312;2022-11-15T11:29:20;100503.0;;;12.89;100.0
34454;BME280;60061;52.080;5.312;2022-11-15T11:31:13;100502.0;;;12.84;100.0
34454;BME280;60061;52.080;5.312;2022-11-15T11:33:05;100500.0;;;12.71;100.0
34454;BME280;60061;52.080;5.312;2022-11-15T11:34:52;100493.0;;;12.8;100.0